Nissho Maru No7 — JH3472 — position and weather

sailwx.info

Track history (hours):
 
Tides and Currents Weather Stations Pressure Air Temp Water Temp Dewpoint Dewpoint Depression Visibility Wind Speed Wind Dir Waves Ship Positions

Nissho Maru No7

Last reported at 2014-Aug-24 17:25 UTC. Time now 2014-Aug-27 17:14 UTC.
Position N 36°11' E 140°58'.

Length 73 m.

MMSI: 431200355.

Date/timePositionNaut miles runAvg speedWind from/ knotsBaromVisibWave heightAir tempDewpointWater temp
2014-Aug-24 17:25N 36°11' E 140°58'1110.8
2014-Aug-24 16:22N 35°60' E 140°57'1311.1
2014-Aug-24 15:13N 35°47' E 140°56'910.9
2014-Aug-24 14:25N 35°39' E 140°52'1111.8
2014-Aug-24 13:32N 35°31' E 140°44'3911.7
2014-Aug-24 10:14N 35°02' E 140°12'912.2
2014-Aug-24 09:30N 34°57' E 140°03'1311.9
2014-Aug-24 08:23N 34°52' E 139°48'1012.5
2014-Aug-24 07:33N 34°51' E 139°36'211 7.5
2014-Aug-23 03:33N 34°35' E 135°20'6 5.9
2014-Aug-23 02:33N 34°35' E 135°27'0 0.0
2014-Aug-23 01:31N 34°35' E 135°27'0 0.0
2014-Aug-23 00:31N 34°35' E 135°27'0 0.0
2014-Aug-22 23:32N 34°35' E 135°27'0 0.0
2014-Aug-22 22:31N 34°35' E 135°27'0 0.0
2014-Aug-22 21:14N 34°35' E 135°27'0 0.0
2014-Aug-22 20:32N 34°35' E 135°27'0 0.0
2014-Aug-22 19:32N 34°35' E 135°27'0 0.0
2014-Aug-22 18:26N 34°35' E 135°27'0 0.0
2014-Aug-22 17:32N 34°35' E 135°27'0 0.0
2014-Aug-22 16:32N 34°35' E 135°27'0 0.0
2014-Aug-22 15:32N 34°35' E 135°27'0 0.0
2014-Aug-22 14:32N 34°35' E 135°27'0 0.0
2014-Aug-22 13:32N 34°35' E 135°27'0 0.0
2014-Aug-22 12:32N 34°35' E 135°27'0 0.0
2014-Aug-22 11:32N 34°35' E 135°27'0 0.0
2014-Aug-22 10:32N 34°35' E 135°27'0 0.0
2014-Aug-22 09:32N 34°35' E 135°27'0 0.0
2014-Aug-22 08:26N 34°35' E 135°27'0 0.0
2014-Aug-22 07:32N 34°35' E 135°27'0 0.0
2014-Aug-22 06:05N 34°35' E 135°27'0 0.0
2014-Aug-22 05:29N 34°35' E 135°27'0 0.0
2014-Aug-22 04:23N 34°35' E 135°27'0 0.0
2014-Aug-22 03:29N 34°35' E 135°27'0 0.0
2014-Aug-22 02:29N 34°35' E 135°27'0 0.0
2014-Aug-22 01:29N 34°35' E 135°27'0 0.0
2014-Aug-22 00:29N 34°35' E 135°27'0 0.0
2014-Aug-21 23:29N 34°35' E 135°27'0 0.0
2014-Aug-21 22:29N 34°35' E 135°27'3 3.0
2014-Aug-21 21:33N 34°36' E 135°24'6 2.7
2014-Aug-21 19:31N 34°31' E 135°24'0 0.0
2014-Aug-21 18:31N 34°31' E 135°24'0 0.0
2014-Aug-21 08:19N 34°31' E 135°24'0 0.0
2014-Aug-21 07:31N 34°31' E 135°24'0 0.0
2014-Aug-21 05:21N 34°31' E 135°24'1 1.4
2014-Aug-21 04:33N 34°32' E 135°23'1 0.2
2014-Aug-20 22:33N 34°32' E 135°22'2 1.9
2014-Aug-20 21:32N 34°32' E 135°20'5 5.4
2014-Aug-20 20:32N 34°29' E 135°15'13 9.1
2014-Aug-20 19:05N 34°21' E 135°02'5 8.9
2014-Aug-20 18:32N 34°17' E 134°59'1110.3
2014-Aug-20 17:31N 34°06' E 135°00'206 8.4
2014-Aug-19 17:03N 34°45' E 139°05'711.1
2014-Aug-19 16:27N 34°51' E 139°09'1010.9
2014-Aug-19 15:32N 34°57' E 139°20'1010.1
2014-Aug-19 14:33N 35°01' E 139°30'1010.3
2014-Aug-19 13:33N 35°07' E 139°41'10 9.8
2014-Aug-19 12:33N 35°16' E 139°46'10 9.6
2014-Aug-19 11:33N 35°25' E 139°44'1010.5
2014-Aug-19 10:33N 35°32' E 139°54'9 9.3
2014-Aug-19 09:33N 35°41' E 139°59'0 0.0
2014-Aug-19 08:23N 35°41' E 139°59'0 0.0
2014-Aug-19 07:32N 35°41' E 139°59'0 0.0
2014-Aug-19 06:32N 35°41' E 139°59'0 0.0
2014-Aug-19 05:32N 35°41' E 139°59'0 0.0
2014-Aug-19 04:32N 35°41' E 139°59'0 0.0
2014-Aug-19 03:32N 35°41' E 139°59'0 0.0
2014-Aug-19 02:33N 35°40' E 139°59'1 0.7
2014-Aug-19 01:32N 35°40' E 140°00'0 0.0
2014-Aug-19 00:30N 35°40' E 140°00'2 1.7
2014-Aug-18 23:33N 35°38' E 139°59'2 1.3
2014-Aug-18 22:23N 35°37' E 139°58'0 0.0
2014-Aug-18 21:32N 35°37' E 139°58'0 0.0
2014-Aug-18 20:32N 35°37' E 139°58'0 0.0
2014-Aug-18 19:29N 35°37' E 139°58'0 0.0
2014-Aug-18 18:29N 35°37' E 139°58'0 0.0
2014-Aug-18 17:29N 35°37' E 139°58'0 0.0
2014-Aug-18 16:23N 35°37' E 139°58'0 0.0
2014-Aug-18 15:32N 35°37' E 139°58'0 0.0
2014-Aug-18 14:29N 35°37' E 139°58'0 0.0
2014-Aug-18 13:32N 35°37' E 139°58'0 0.0
2014-Aug-18 12:29N 35°37' E 139°58'0 0.0
2014-Aug-18 11:29N 35°37' E 139°58'0 0.0
2014-Aug-18 10:29N 35°37' E 139°58'0 0.0
2014-Aug-18 09:30N 35°37' E 139°58'3 3.6
2014-Aug-18 08:33N 35°36' E 139°54'5 5.2
2014-Aug-18 07:32N 35°38' E 139°48'0 0.0
2014-Aug-18 06:32N 35°38' E 139°48'0 0.0
2014-Aug-18 05:32N 35°38' E 139°48'0 0.0
2014-Aug-18 04:29N 35°38' E 139°48'7 7.8
2014-Aug-18 03:34N 35°35' E 139°56'7 7.0
2014-Aug-18 02:33N 35°37' E 140°05'0 0.0
2014-Aug-18 01:30N 35°37' E 140°05'0 0.0
2014-Aug-18 00:30N 35°37' E 140°05'2 0.4
2014-Aug-17 18:33N 35°35' E 140°04'0 0.0
2014-Aug-17 17:33N 35°35' E 140°04'0 0.0
2014-Aug-17 16:33N 35°35' E 140°04'0 0.0
2014-Aug-17 15:33N 35°35' E 140°04'0 0.0
2014-Aug-17 14:33N 35°35' E 140°04'0 0.0
2014-Aug-17 13:24N 35°35' E 140°04'0 0.1
2014-Aug-17 12:33N 35°35' E 140°04'0 0.0
2014-Aug-17 11:30N 35°35' E 140°04'0 0.0
2014-Aug-17 10:27N 35°35' E 140°04'0 0.0
2014-Aug-17 09:30N 35°35' E 140°04'0 0.0
2014-Aug-17 08:30N 35°35' E 140°04'0 0.0
2014-Aug-17 07:27N 35°35' E 140°04'0 0.1
2014-Aug-17 06:33N 35°35' E 140°04'0 0.0
2014-Aug-17 05:33N 35°35' E 140°04'0 0.0
2014-Aug-17 04:26N 35°35' E 140°04'0 0.0
2014-Aug-17 03:32N 35°35' E 140°04'8 7.8
2014-Aug-17 02:34N 35°31' E 139°55'1110.7
2014-Aug-17 01:34N 35°23' E 139°46'1010.0
2014-Aug-17 00:34N 35°13' E 139°47'1111.2
2014-Aug-16 23:33N 35°03' E 139°41'1212.0
2014-Aug-16 22:32N 34°56' E 139°29'227 9.5
2014-Aug-15 22:33N 34°04' E 135°00'1110.8
2014-Aug-15 21:32N 34°15' E 134°59'1111.4
2014-Aug-15 20:33N 34°26' E 135°01'1110.9
2014-Aug-15 19:34N 34°37' E 135°02'  
Track history (hours):
 
Tides and Currents Weather Stations Pressure Air Temp Water Temp Dewpoint Dewpoint Depression Visibility Wind Speed Wind Dir Waves Ship Positions

Nissho Maru No7

Last reported at 2014-Aug-24 17:25 UTC. Time now 2014-Aug-27 17:14 UTC.
Position N 36°11' E 140°58'.

Length 73 m.

MMSI: 431200355.

Date/timePositionNaut miles runAvg speedWind from/ knotsBaromVisibWave heightAir tempDewpointWater temp
2014-Aug-24 17:25N 36°11' E 140°58'1110.8
2014-Aug-24 16:22N 35°60' E 140°57'1311.1
2014-Aug-24 15:13N 35°47' E 140°56'910.9
2014-Aug-24 14:25N 35°39' E 140°52'1111.8
2014-Aug-24 13:32N 35°31' E 140°44'3911.7
2014-Aug-24 10:14N 35°02' E 140°12'912.2
2014-Aug-24 09:30N 34°57' E 140°03'1311.9
2014-Aug-24 08:23N 34°52' E 139°48'1012.5
2014-Aug-24 07:33N 34°51' E 139°36'211 7.5
2014-Aug-23 03:33N 34°35' E 135°20'6 5.9
2014-Aug-23 02:33N 34°35' E 135°27'0 0.0
2014-Aug-23 01:31N 34°35' E 135°27'0 0.0
2014-Aug-23 00:31N 34°35' E 135°27'0 0.0
2014-Aug-22 23:32N 34°35' E 135°27'0 0.0
2014-Aug-22 22:31N 34°35' E 135°27'0 0.0
2014-Aug-22 21:14N 34°35' E 135°27'0 0.0
2014-Aug-22 20:32N 34°35' E 135°27'0 0.0
2014-Aug-22 19:32N 34°35' E 135°27'0 0.0
2014-Aug-22 18:26N 34°35' E 135°27'0 0.0
2014-Aug-22 17:32N 34°35' E 135°27'0 0.0
2014-Aug-22 16:32N 34°35' E 135°27'0 0.0
2014-Aug-22 15:32N 34°35' E 135°27'0 0.0
2014-Aug-22 14:32N 34°35' E 135°27'0 0.0
2014-Aug-22 13:32N 34°35' E 135°27'0 0.0
2014-Aug-22 12:32N 34°35' E 135°27'0 0.0
2014-Aug-22 11:32N 34°35' E 135°27'0 0.0
2014-Aug-22 10:32N 34°35' E 135°27'0 0.0
2014-Aug-22 09:32N 34°35' E 135°27'0 0.0
2014-Aug-22 08:26N 34°35' E 135°27'0 0.0
2014-Aug-22 07:32N 34°35' E 135°27'0 0.0
2014-Aug-22 06:05N 34°35' E 135°27'0 0.0
2014-Aug-22 05:29N 34°35' E 135°27'0 0.0
2014-Aug-22 04:23N 34°35' E 135°27'0 0.0
2014-Aug-22 03:29N 34°35' E 135°27'0 0.0
2014-Aug-22 02:29N 34°35' E 135°27'0 0.0
2014-Aug-22 01:29N 34°35' E 135°27'0 0.0
2014-Aug-22 00:29N 34°35' E 135°27'0 0.0
2014-Aug-21 23:29N 34°35' E 135°27'0 0.0
2014-Aug-21 22:29N 34°35' E 135°27'3 3.0
2014-Aug-21 21:33N 34°36' E 135°24'6 2.7
2014-Aug-21 19:31N 34°31' E 135°24'0 0.0
2014-Aug-21 18:31N 34°31' E 135°24'0 0.0
2014-Aug-21 08:19N 34°31' E 135°24'0 0.0
2014-Aug-21 07:31N 34°31' E 135°24'0 0.0
2014-Aug-21 05:21N 34°31' E 135°24'1 1.4
2014-Aug-21 04:33N 34°32' E 135°23'1 0.2
2014-Aug-20 22:33N 34°32' E 135°22'2 1.9
2014-Aug-20 21:32N 34°32' E 135°20'5 5.4
2014-Aug-20 20:32N 34°29' E 135°15'13 9.1
2014-Aug-20 19:05N 34°21' E 135°02'5 8.9
2014-Aug-20 18:32N 34°17' E 134°59'1110.3
2014-Aug-20 17:31N 34°06' E 135°00'206 8.4
2014-Aug-19 17:03N 34°45' E 139°05'711.1
2014-Aug-19 16:27N 34°51' E 139°09'1010.9
2014-Aug-19 15:32N 34°57' E 139°20'1010.1
2014-Aug-19 14:33N 35°01' E 139°30'1010.3
2014-Aug-19 13:33N 35°07' E 139°41'10 9.8
2014-Aug-19 12:33N 35°16' E 139°46'10 9.6
2014-Aug-19 11:33N 35°25' E 139°44'1010.5
2014-Aug-19 10:33N 35°32' E 139°54'9 9.3
2014-Aug-19 09:33N 35°41' E 139°59'0 0.0
2014-Aug-19 08:23N 35°41' E 139°59'0 0.0
2014-Aug-19 07:32N 35°41' E 139°59'0 0.0
2014-Aug-19 06:32N 35°41' E 139°59'0 0.0
2014-Aug-19 05:32N 35°41' E 139°59'0 0.0
2014-Aug-19 04:32N 35°41' E 139°59'0 0.0
2014-Aug-19 03:32N 35°41' E 139°59'0 0.0
2014-Aug-19 02:33N 35°40' E 139°59'1 0.7
2014-Aug-19 01:32N 35°40' E 140°00'0 0.0
2014-Aug-19 00:30N 35°40' E 140°00'2 1.7
2014-Aug-18 23:33N 35°38' E 139°59'2 1.3
2014-Aug-18 22:23N 35°37' E 139°58'0 0.0
2014-Aug-18 21:32N 35°37' E 139°58'0 0.0
2014-Aug-18 20:32N 35°37' E 139°58'0 0.0
2014-Aug-18 19:29N 35°37' E 139°58'0 0.0
2014-Aug-18 18:29N 35°37' E 139°58'0 0.0
2014-Aug-18 17:29N 35°37' E 139°58'0 0.0
2014-Aug-18 16:23N 35°37' E 139°58'0 0.0
2014-Aug-18 15:32N 35°37' E 139°58'0 0.0
2014-Aug-18 14:29N 35°37' E 139°58'0 0.0
2014-Aug-18 13:32N 35°37' E 139°58'0 0.0
2014-Aug-18 12:29N 35°37' E 139°58'0 0.0
2014-Aug-18 11:29N 35°37' E 139°58'0 0.0
2014-Aug-18 10:29N 35°37' E 139°58'0 0.0
2014-Aug-18 09:30N 35°37' E 139°58'3 3.6
2014-Aug-18 08:33N 35°36' E 139°54'5 5.2
2014-Aug-18 07:32N 35°38' E 139°48'0 0.0
2014-Aug-18 06:32N 35°38' E 139°48'0 0.0
2014-Aug-18 05:32N 35°38' E 139°48'0 0.0
2014-Aug-18 04:29N 35°38' E 139°48'7 7.8
2014-Aug-18 03:34N 35°35' E 139°56'7 7.0
2014-Aug-18 02:33N 35°37' E 140°05'0 0.0
2014-Aug-18 01:30N 35°37' E 140°05'0 0.0
2014-Aug-18 00:30N 35°37' E 140°05'2 0.4
2014-Aug-17 18:33N 35°35' E 140°04'0 0.0
2014-Aug-17 17:33N 35°35' E 140°04'0 0.0
2014-Aug-17 16:33N 35°35' E 140°04'0 0.0
2014-Aug-17 15:33N 35°35' E 140°04'0 0.0
2014-Aug-17 14:33N 35°35' E 140°04'0 0.0
2014-Aug-17 13:24N 35°35' E 140°04'0 0.1
2014-Aug-17 12:33N 35°35' E 140°04'0 0.0
2014-Aug-17 11:30N 35°35' E 140°04'0 0.0
2014-Aug-17 10:27N 35°35' E 140°04'0 0.0
2014-Aug-17 09:30N 35°35' E 140°04'0 0.0
2014-Aug-17 08:30N 35°35' E 140°04'0 0.0
2014-Aug-17 07:27N 35°35' E 140°04'0 0.1
2014-Aug-17 06:33N 35°35' E 140°04'0 0.0
2014-Aug-17 05:33N 35°35' E 140°04'0 0.0
2014-Aug-17 04:26N 35°35' E 140°04'0 0.0
2014-Aug-17 03:32N 35°35' E 140°04'8 7.8
2014-Aug-17 02:34N 35°31' E 139°55'1110.7
2014-Aug-17 01:34N 35°23' E 139°46'1010.0
2014-Aug-17 00:34N 35°13' E 139°47'1111.2
2014-Aug-16 23:33N 35°03' E 139°41'1212.0
2014-Aug-16 22:32N 34°56' E 139°29'227 9.5
2014-Aug-15 22:33N 34°04' E 135°00'1110.8
2014-Aug-15 21:32N 34°15' E 134°59'1111.4
2014-Aug-15 20:33N 34°26' E 135°01'1110.9
2014-Aug-15 19:34N 34°37' E 135°02'  

Dump ship's entire track history